sensor_id;sensor_type;location;lat;lon;timestamp;temperature;humidity
1383;DHT22;685;47.196;11.880;2023-05-10T00:01:08;15.50;99.90
1383;DHT22;685;47.196;11.880;2023-05-10T00:03:35;15.40;99.90
1383;DHT22;685;47.196;11.880;2023-05-10T00:06:02;15.10;99.90
1383;DHT22;685;47.196;11.880;2023-05-10T00:08:29;15.20;99.90
1383;DHT22;685;47.196;11.880;2023-05-10T00:10:58;15.30;99.90
1383;DHT22;685;47.196;11.880;2023-05-10T00:13:25;15.00;99.90
1383;DHT22;685;47.196;11.880;2023-05-10T00:15:52;15.00;99.90
1383;DHT22;685;47.196;11.880;2023-05-10T00:18:19;15.20;99.90
1383;DHT22;685;47.196;11.880;2023-05-10T00:20:46;15.50;99.90
1383;DHT22;685;47.196;11.880;2023-05-10T00:23:14;15.40;99.90
1383;DHT22;685;47.196;11.880;2023-05-10T00:25:41;15.60;99.90
1383;DHT22;685;47.196;11.880;2023-05-10T00:28:09;15.70;99.90
1383;DHT22;685;47.196;11.880;2023-05-10T00:30:36;15.60;99.90
1383;DHT22;685;47.196;11.880;2023-05-10T00:33:03;15.70;99.90
1383;DHT22;685;47.196;11.880;2023-05-10T00:35:30;15.70;99.90
1383;DHT22;685;47.196;11.880;2023-05-10T00:37:57;15.70;99.90
1383;DHT22;685;47.196;11.880;2023-05-10T00:40:24;15.60;99.90
1383;DHT22;685;47.196;11.880;2023-05-10T00:42:50;15.70;99.90
1383;DHT22;685;47.196;11.880;2023-05-10T00:45:19;15.60;99.90
1383;DHT22;685;47.196;11.880;2023-05-10T00:47:46;15.70;99.90
1383;DHT22;685;47.196;11.880;2023-05-10T00:50:13;15.60;99.90
1383;DHT22;685;47.196;11.880;2023-05-10T00:52:41;15.30;99.90
1383;DHT22;685;47.196;11.880;2023-05-10T00:55:09;15.40;99.90
1383;DHT22;685;47.196;11.880;2023-05-10T00:57:37;15.50;99.90
1383;DHT22;685;47.196;11.880;2023-05-10T01:00:05;15.60;99.90
1383;DHT22;685;47.196;11.880;2023-05-10T01:02:35;15.70;99.90
1383;DHT22;685;47.196;11.880;2023-05-10T01:05:02;15.70;99.90
1383;DHT22;685;47.196;11.880;2023-05-10T01:07:30;15.50;99.90
1383;DHT22;685;47.196;11.880;2023-05-10T01:09:57;15.40;99.90
1383;DHT22;685;47.196;11.880;2023-05-10T01:12:24;15.40;99.90
1383;DHT22;685;47.196;11.880;2023-05-10T01:14:51;15.50;99.90
1383;DHT22;685;47.196;11.880;2023-05-10T01:17:19;15.60;99.90
1383;DHT22;685;47.196;11.880;2023-05-10T01:19:48;15.60;99.90
1383;DHT22;685;47.196;11.880;2023-05-10T01:22:34;15.50;99.90
1383;DHT22;685;47.196;11.880;2023-05-10T01:25:32;15.50;99.90
1383;DHT22;685;47.196;11.880;2023-05-10T01:28:35;15.40;99.90
1383;DHT22;685;47.196;11.880;2023-05-10T01:31:37;15.40;99.90
1383;DHT22;685;47.196;11.880;2023-05-10T01:34:08;15.30;99.90
1383;DHT22;685;47.196;11.880;2023-05-10T01:36:40;15.40;99.90
1383;DHT22;685;47.196;11.880;2023-05-10T01:39:16;15.50;99.90
1383;DHT22;685;47.196;11.880;2023-05-10T01:41:49;15.30;99.90
1383;DHT22;685;47.196;11.880;2023-05-10T01:44:33;15.30;99.90
1383;DHT22;685;47.196;11.880;2023-05-10T01:47:05;14.90;99.90
1383;DHT22;685;47.196;11.880;2023-05-10T01:49:40;15.00;99.90
1383;DHT22;685;47.196;11.880;2023-05-10T01:52:10;15.10;99.90
1383;DHT22;685;47.196;11.880;2023-05-10T01:54:41;15.20;99.90
1383;DHT22;685;47.196;11.880;2023-05-10T01:57:10;15.10;99.90
1383;DHT22;685;47.196;11.880;2023-05-10T01:59:39;15.00;99.90
1383;DHT22;685;47.196;11.880;2023-05-10T02:02:08;15.00;99.90
1383;DHT22;685;47.196;11.880;2023-05-10T02:04:39;15.20;99.90
1383;DHT22;685;47.196;11.880;2023-05-10T02:07:08;15.20;99.90
1383;DHT22;685;47.196;11.880;2023-05-10T02:09:37;15.10;99.90
1383;DHT22;685;47.196;11.880;2023-05-10T02:12:06;15.10;99.90
1383;DHT22;685;47.196;11.880;2023-05-10T02:14:35;15.00;99.90
1383;DHT22;685;47.196;11.880;2023-05-10T02:17:05;15.10;99.90
1383;DHT22;685;47.196;11.880;2023-05-10T02:19:33;15.20;99.90
1383;DHT22;685;47.196;11.880;2023-05-10T02:22:03;15.20;99.90
1383;DHT22;685;47.196;11.880;2023-05-10T02:24:32;15.20;99.90
1383;DHT22;685;47.196;11.880;2023-05-10T02:27:00;15.20;99.90
1383;DHT22;685;47.196;11.880;2023-05-10T02:29:30;15.20;99.90
1383;DHT22;685;47.196;11.880;2023-05-10T02:31:58;15.20;99.90
1383;DHT22;685;47.196;11.880;2023-05-10T02:34:27;15.10;99.90
1383;DHT22;685;47.196;11.880;2023-05-10T02:36:55;15.10;99.90
1383;DHT22;685;47.196;11.880;2023-05-10T02:39:25;15.10;99.90
1383;DHT22;685;47.196;11.880;2023-05-10T02:41:54;15.00;99.90
1383;DHT22;685;47.196;11.880;2023-05-10T02:44:22;15.10;99.90
1383;DHT22;685;47.196;11.880;2023-05-10T02:46:50;15.10;99.90
1383;DHT22;685;47.196;11.880;2023-05-10T02:49:18;15.20;99.90
1383;DHT22;685;47.196;11.880;2023-05-10T02:51:50;15.10;99.90
1383;DHT22;685;47.196;11.880;2023-05-10T02:54:20;15.00;99.90
1383;DHT22;685;47.196;11.880;2023-05-10T02:56:53;14.80;99.90
1383;DHT22;685;47.196;11.880;2023-05-10T02:59:23;14.40;99.90
1383;DHT22;685;47.196;11.880;2023-05-10T03:01:50;14.60;99.90
1383;DHT22;685;47.196;11.880;2023-05-10T03:04:16;14.50;99.90
1383;DHT22;685;47.196;11.880;2023-05-10T03:06:44;14.50;99.90
1383;DHT22;685;47.196;11.880;2023-05-10T03:09:11;14.60;99.90
1383;DHT22;685;47.196;11.880;2023-05-10T03:11:49;14.60;99.90
1383;DHT22;685;47.196;11.880;2023-05-10T03:14:24;14.50;99.90
1383;DHT22;685;47.196;11.880;2023-05-10T03:16:59;14.00;99.90
1383;DHT22;685;47.196;11.880;2023-05-10T03:19:30;14.20;99.90
1383;DHT22;685;47.196;11.880;2023-05-10T03:22:02;14.40;99.90
1383;DHT22;685;47.196;11.880;2023-05-10T03:24:30;14.40;99.90
1383;DHT22;685;47.196;11.880;2023-05-10T03:27:00;14.30;99.90
1383;DHT22;685;47.196;11.880;2023-05-10T03:29:30;14.30;99.90
1383;DHT22;685;47.196;11.880;2023-05-10T03:31:58;14.10;99.90
1383;DHT22;685;47.196;11.880;2023-05-10T03:34:26;14.30;99.90
1383;DHT22;685;47.196;11.880;2023-05-10T03:36:53;14.30;99.90
1383;DHT22;685;47.196;11.880;2023-05-10T03:39:20;14.50;99.90
1383;DHT22;685;47.196;11.880;2023-05-10T03:41:47;14.50;99.90
1383;DHT22;685;47.196;11.880;2023-05-10T03:44:14;14.50;99.90
1383;DHT22;685;47.196;11.880;2023-05-10T03:46:42;14.30;99.90
1383;DHT22;685;47.196;11.880;2023-05-10T03:49:09;14.40;99.90
1383;DHT22;685;47.196;11.880;2023-05-10T03:51:36;14.60;99.90
1383;DHT22;685;47.196;11.880;2023-05-10T03:54:03;14.50;99.90
1383;DHT22;685;47.196;11.880;2023-05-10T03:56:30;14.50;99.90
1383;DHT22;685;47.196;11.880;2023-05-10T03:58:57;14.60;99.90
1383;DHT22;685;47.196;11.880;2023-05-10T04:01:23;14.40;99.90
1383;DHT22;685;47.196;11.880;2023-05-10T04:03:52;14.50;99.90
1383;DHT22;685;47.196;11.880;2023-05-10T04:06:19;14.40;99.90
1383;DHT22;685;47.196;11.880;2023-05-10T04:08:46;14.40;99.90
1383;DHT22;685;47.196;11.880;2023-05-10T04:11:12;14.40;99.90
1383;DHT22;685;47.196;11.880;2023-05-10T04:13:39;14.40;99.90
1383;DHT22;685;47.196;11.880;2023-05-10T04:16:06;14.30;99.90
1383;DHT22;685;47.196;11.880;2023-05-10T04:18:33;14.40;99.90
1383;DHT22;685;47.196;11.880;2023-05-10T04:21:02;14.40;99.90
1383;DHT22;685;47.196;11.880;2023-05-10T04:23:29;14.50;99.90
1383;DHT22;685;47.196;11.880;2023-05-10T04:25:59;14.40;99.90
1383;DHT22;685;47.196;11.880;2023-05-10T04:28:27;14.40;99.90
1383;DHT22;685;47.196;11.880;2023-05-10T04:31:00;14.20;99.90
1383;DHT22;685;47.196;11.880;2023-05-10T04:33:28;14.20;99.90
1383;DHT22;685;47.196;11.880;2023-05-10T04:35:54;14.40;99.90
1383;DHT22;685;47.196;11.880;2023-05-10T04:38:23;14.50;99.90
1383;DHT22;685;47.196;11.880;2023-05-10T04:40:50;14.50;99.90
1383;DHT22;685;47.196;11.880;2023-05-10T04:43:17;14.40;99.90
1383;DHT22;685;47.196;11.880;2023-05-10T04:45:44;14.10;99.90
1383;DHT22;685;47.196;11.880;2023-05-10T04:48:10;13.80;99.90
1383;DHT22;685;47.196;11.880;2023-05-10T04:50:38;13.60;99.90
1383;DHT22;685;47.196;11.880;2023-05-10T04:53:05;13.70;99.90
1383;DHT22;685;47.196;11.880;2023-05-10T04:55:33;13.90;99.90
1383;DHT22;685;47.196;11.880;2023-05-10T04:58:00;14.00;99.90
1383;DHT22;685;47.196;11.880;2023-05-10T05:00:28;14.00;99.90
1383;DHT22;685;47.196;11.880;2023-05-10T05:02:55;14.20;99.90
1383;DHT22;685;47.196;11.880;2023-05-10T05:05:22;14.30;99.90
1383;DHT22;685;47.196;11.880;2023-05-10T05:07:49;14.30;99.90
1383;DHT22;685;47.196;11.880;2023-05-10T05:10:16;14.10;99.90
1383;DHT22;685;47.196;11.880;2023-05-10T05:12:44;14.10;99.90
1383;DHT22;685;47.196;11.880;2023-05-10T05:15:11;14.10;99.90
1383;DHT22;685;47.196;11.880;2023-05-10T05:17:38;14.20;99.90
1383;DHT22;685;47.196;11.880;2023-05-10T05:20:06;14.20;99.90
1383;DHT22;685;47.196;11.880;2023-05-10T05:22:33;14.30;99.90
1383;DHT22;685;47.196;11.880;2023-05-10T05:25:00;14.30;99.90
1383;DHT22;685;47.196;11.880;2023-05-10T05:27:28;14.30;99.90
1383;DHT22;685;47.196;11.880;2023-05-10T05:29:56;14.50;99.90
1383;DHT22;685;47.196;11.880;2023-05-10T05:32:24;14.50;99.90
1383;DHT22;685;47.196;11.880;2023-05-10T05:34:51;14.30;99.90
1383;DHT22;685;47.196;11.880;2023-05-10T05:37:19;14.40;99.90
1383;DHT22;685;47.196;11.880;2023-05-10T05:39:47;14.20;99.90
1383;DHT22;685;47.196;11.880;2023-05-10T05:42:14;14.10;99.90
1383;DHT22;685;47.196;11.880;2023-05-10T05:44:42;14.20;99.90
1383;DHT22;685;47.196;11.880;2023-05-10T05:47:10;14.20;99.90
1383;DHT22;685;47.196;11.880;2023-05-10T05:49:37;14.40;99.90
1383;DHT22;685;47.196;11.880;2023-05-10T05:52:05;14.40;99.90
1383;DHT22;685;47.196;11.880;2023-05-10T05:54:31;14.50;99.90
1383;DHT22;685;47.196;11.880;2023-05-10T05:56:59;14.50;99.90
1383;DHT22;685;47.196;11.880;2023-05-10T05:59:26;14.60;99.90
1383;DHT22;685;47.196;11.880;2023-05-10T06:01:53;14.50;99.90
1383;DHT22;685;47.196;11.880;2023-05-10T06:04:21;14.50;99.90
1383;DHT22;685;47.196;11.880;2023-05-10T06:06:48;14.60;99.90
1383;DHT22;685;47.196;11.880;2023-05-10T06:09:15;14.60;99.90
1383;DHT22;685;47.196;11.880;2023-05-10T06:11:42;14.60;99.90
1383;DHT22;685;47.196;11.880;2023-05-10T06:14:09;14.60;99.90
1383;DHT22;685;47.196;11.880;2023-05-10T06:16:36;14.60;99.90
1383;DHT22;685;47.196;11.880;2023-05-10T06:19:03;14.50;99.90
1383;DHT22;685;47.196;11.880;2023-05-10T06:21:31;14.40;99.90
1383;DHT22;685;47.196;11.880;2023-05-10T06:23:58;14.40;99.90
1383;DHT22;685;47.196;11.880;2023-05-10T06:26:25;14.50;99.90
1383;DHT22;685;47.196;11.880;2023-05-10T06:28:52;14.40;99.90
1383;DHT22;685;47.196;11.880;2023-05-10T06:31:18;14.40;99.90
1383;DHT22;685;47.196;11.880;2023-05-10T06:33:45;14.30;99.90
1383;DHT22;685;47.196;11.880;2023-05-10T06:36:12;14.20;99.90
1383;DHT22;685;47.196;11.880;2023-05-10T06:38:41;14.30;99.90
1383;DHT22;685;47.196;11.880;2023-05-10T06:41:07;14.30;99.90
1383;DHT22;685;47.196;11.880;2023-05-10T06:43:34;14.20;99.90
1383;DHT22;685;47.196;11.880;2023-05-10T06:46:05;14.20;99.90
1383;DHT22;685;47.196;11.880;2023-05-10T06:48:32;14.00;99.90
1383;DHT22;685;47.196;11.880;2023-05-10T06:50:59;14.00;99.90
1383;DHT22;685;47.196;11.880;2023-05-10T06:53:26;13.90;99.90
1383;DHT22;685;47.196;11.880;2023-05-10T06:55:54;13.90;99.90
1383;DHT22;685;47.196;11.880;2023-05-10T06:58:21;13.90;99.90
1383;DHT22;685;47.196;11.880;2023-05-10T07:00:48;14.00;99.90
1383;DHT22;685;47.196;11.880;2023-05-10T07:03:15;14.00;99.90
1383;DHT22;685;47.196;11.880;2023-05-10T07:05:42;14.10;99.90
1383;DHT22;685;47.196;11.880;2023-05-10T07:08:09;14.20;99.90
1383;DHT22;685;47.196;11.880;2023-05-10T07:10:36;14.10;99.90
1383;DHT22;685;47.196;11.880;2023-05-10T07:13:04;14.10;99.90
1383;DHT22;685;47.196;11.880;2023-05-10T07:15:31;14.00;99.90
1383;DHT22;685;47.196;11.880;2023-05-10T07:17:59;14.00;99.90
1383;DHT22;685;47.196;11.880;2023-05-10T07:20:25;14.00;99.90
1383;DHT22;685;47.196;11.880;2023-05-10T07:22:52;14.00;99.90
1383;DHT22;685;47.196;11.880;2023-05-10T07:25:19;14.10;99.90
1383;DHT22;685;47.196;11.880;2023-05-10T07:27:46;14.10;99.90
1383;DHT22;685;47.196;11.880;2023-05-10T07:30:15;14.20;99.90
1383;DHT22;685;47.196;11.880;2023-05-10T07:32:42;14.30;99.90
1383;DHT22;685;47.196;11.880;2023-05-10T07:35:09;14.00;99.90
1383;DHT22;685;47.196;11.880;2023-05-10T07:37:36;14.00;99.90
1383;DHT22;685;47.196;11.880;2023-05-10T07:40:03;14.00;99.90
1383;DHT22;685;47.196;11.880;2023-05-10T07:42:30;14.00;99.90
1383;DHT22;685;47.196;11.880;2023-05-10T07:44:57;14.10;99.90
1383;DHT22;685;47.196;11.880;2023-05-10T07:47:25;14.20;99.90
1383;DHT22;685;47.196;11.880;2023-05-10T07:49:52;14.30;99.90
1383;DHT22;685;47.196;11.880;2023-05-10T07:52:19;14.20;99.90
1383;DHT22;685;47.196;11.880;2023-05-10T07:54:46;14.10;99.90
1383;DHT22;685;47.196;11.880;2023-05-10T07:57:13;14.20;99.90
1383;DHT22;685;47.196;11.880;2023-05-10T07:59:43;14.30;99.90
1383;DHT22;685;47.196;11.880;2023-05-10T08:02:10;14.20;99.90
1383;DHT22;685;47.196;11.880;2023-05-10T08:04:38;14.10;99.90
1383;DHT22;685;47.196;11.880;2023-05-10T08:07:05;14.10;99.90
1383;DHT22;685;47.196;11.880;2023-05-10T08:09:32;14.30;99.90
1383;DHT22;685;47.196;11.880;2023-05-10T08:11:59;14.30;99.90
1383;DHT22;685;47.196;11.880;2023-05-10T08:14:28;14.00;99.90
1383;DHT22;685;47.196;11.880;2023-05-10T08:16:55;14.10;99.90
1383;DHT22;685;47.196;11.880;2023-05-10T08:19:22;14.10;99.90
1383;DHT22;685;47.196;11.880;2023-05-10T08:21:50;14.00;99.90
1383;DHT22;685;47.196;11.880;2023-05-10T08:24:18;13.60;99.90
1383;DHT22;685;47.196;11.880;2023-05-10T08:26:45;13.70;99.90
1383;DHT22;685;47.196;11.880;2023-05-10T08:29:13;13.90;99.90
1383;DHT22;685;47.196;11.880;2023-05-10T08:31:40;14.00;99.90
1383;DHT22;685;47.196;11.880;2023-05-10T08:34:07;14.00;99.90
1383;DHT22;685;47.196;11.880;2023-05-10T08:36:33;14.10;99.90
1383;DHT22;685;47.196;11.880;2023-05-10T08:39:03;14.10;99.90
1383;DHT22;685;47.196;11.880;2023-05-10T08:41:30;14.10;99.90
1383;DHT22;685;47.196;11.880;2023-05-10T08:44:02;14.10;99.90
1383;DHT22;685;47.196;11.880;2023-05-10T08:46:31;14.00;99.90
1383;DHT22;685;47.196;11.880;2023-05-10T08:49:02;13.90;99.90
1383;DHT22;685;47.196;11.880;2023-05-10T08:51:35;14.10;99.90
1383;DHT22;685;47.196;11.880;2023-05-10T08:54:04;14.20;99.90
1383;DHT22;685;47.196;11.880;2023-05-10T08:56:32;14.10;99.90
1383;DHT22;685;47.196;11.880;2023-05-10T08:58:59;14.10;99.90
1383;DHT22;685;47.196;11.880;2023-05-10T09:01:27;14.20;99.90
1383;DHT22;685;47.196;11.880;2023-05-10T09:03:54;14.20;99.90
1383;DHT22;685;47.196;11.880;2023-05-10T09:06:21;14.30;99.90
1383;DHT22;685;47.196;11.880;2023-05-10T09:08:49;14.30;99.90
1383;DHT22;685;47.196;11.880;2023-05-10T09:11:17;14.50;99.90
1383;DHT22;685;47.196;11.880;2023-05-10T09:13:44;14.50;99.90
1383;DHT22;685;47.196;11.880;2023-05-10T09:16:12;14.50;99.90
1383;DHT22;685;47.196;11.880;2023-05-10T09:18:39;14.60;99.90
1383;DHT22;685;47.196;11.880;2023-05-10T09:21:06;14.60;99.90
1383;DHT22;685;47.196;11.880;2023-05-10T09:23:33;14.50;99.90
1383;DHT22;685;47.196;11.880;2023-05-10T09:26:03;14.40;99.90
1383;DHT22;685;47.196;11.880;2023-05-10T09:28:33;14.40;99.90
1383;DHT22;685;47.196;11.880;2023-05-10T09:31:00;14.50;99.90
1383;DHT22;685;47.196;11.880;2023-05-10T09:33:26;14.40;99.90
1383;DHT22;685;47.196;11.880;2023-05-10T09:35:53;14.40;99.90
1383;DHT22;685;47.196;11.880;2023-05-10T09:38:20;14.40;99.90
1383;DHT22;685;47.196;11.880;2023-05-10T09:40:52;14.50;99.90
1383;DHT22;685;47.196;11.880;2023-05-10T09:43:21;14.40;99.90
1383;DHT22;685;47.196;11.880;2023-05-10T09:45:49;14.30;99.90
1383;DHT22;685;47.196;11.880;2023-05-10T09:48:16;14.40;99.90
1383;DHT22;685;47.196;11.880;2023-05-10T09:50:43;14.40;99.90
1383;DHT22;685;47.196;11.880;2023-05-10T09:53:14;14.40;99.90
1383;DHT22;685;47.196;11.880;2023-05-10T09:55:43;14.40;99.90
1383;DHT22;685;47.196;11.880;2023-05-10T09:58:11;14.40;99.90
1383;DHT22;685;47.196;11.880;2023-05-10T10:00:39;14.30;99.90
1383;DHT22;685;47.196;11.880;2023-05-10T10:03:12;14.10;99.90
1383;DHT22;685;47.196;11.880;2023-05-10T10:05:41;14.10;99.90
1383;DHT22;685;47.196;11.880;2023-05-10T10:08:09;13.70;99.90
1383;DHT22;685;47.196;11.880;2023-05-10T10:10:36;13.70;99.90
1383;DHT22;685;47.196;11.880;2023-05-10T10:13:04;13.60;99.90
1383;DHT22;685;47.196;11.880;2023-05-10T10:15:32;13.60;99.90
1383;DHT22;685;47.196;11.880;2023-05-10T10:17:59;13.80;99.90
1383;DHT22;685;47.196;11.880;2023-05-10T10:20:28;13.80;99.90
1383;DHT22;685;47.196;11.880;2023-05-10T10:22:55;13.80;99.90
1383;DHT22;685;47.196;11.880;2023-05-10T10:25:22;13.90;99.90
1383;DHT22;685;47.196;11.880;2023-05-10T10:27:59;14.00;99.90
1383;DHT22;685;47.196;11.880;2023-05-10T10:30:35;14.00;99.90
1383;DHT22;685;47.196;11.880;2023-05-10T10:33:29;14.10;99.90
1383;DHT22;685;47.196;11.880;2023-05-10T10:36:02;14.30;99.90
1383;DHT22;685;47.196;11.880;2023-05-10T10:38:37;14.20;99.90
1383;DHT22;685;47.196;11.880;2023-05-10T10:41:10;14.20;99.90
1383;DHT22;685;47.196;11.880;2023-05-10T10:43:37;14.10;99.90
1383;DHT22;685;47.196;11.880;2023-05-10T10:46:12;13.90;99.90
1383;DHT22;685;47.196;11.880;2023-05-10T10:48:40;14.10;99.90
1383;DHT22;685;47.196;11.880;2023-05-10T10:51:08;14.20;99.90
1383;DHT22;685;47.196;11.880;2023-05-10T10:53:37;14.10;99.90
1383;DHT22;685;47.196;11.880;2023-05-10T10:56:06;14.20;99.90
1383;DHT22;685;47.196;11.880;2023-05-10T10:58:35;14.20;99.90
1383;DHT22;685;47.196;11.880;2023-05-10T11:01:13;14.40;99.90
1383;DHT22;685;47.196;11.880;2023-05-10T11:03:54;14.20;99.90
1383;DHT22;685;47.196;11.880;2023-05-10T11:06:34;14.40;99.90
1383;DHT22;685;47.196;11.880;2023-05-10T11:09:06;14.50;99.90
1383;DHT22;685;47.196;11.880;2023-05-10T11:11:34;14.60;99.90
1383;DHT22;685;47.196;11.880;2023-05-10T11:14:03;14.60;99.90
1383;DHT22;685;47.196;11.880;2023-05-10T11:16:40;14.70;99.90
1383;DHT22;685;47.196;11.880;2023-05-10T11:19:09;14.70;99.90
1383;DHT22;685;47.196;11.880;2023-05-10T11:21:46;14.50;99.90
1383;DHT22;685;47.196;11.880;2023-05-10T11:24:15;14.40;99.90
1383;DHT22;685;47.196;11.880;2023-05-10T11:26:42;14.40;99.90
1383;DHT22;685;47.196;11.880;2023-05-10T11:29:09;14.60;99.90
1383;DHT22;685;47.196;11.880;2023-05-10T11:31:42;14.60;99.90
1383;DHT22;685;47.196;11.880;2023-05-10T11:34:10;14.40;99.90
1383;DHT22;685;47.196;11.880;2023-05-10T11:36:38;14.50;99.90
1383;DHT22;685;47.196;11.880;2023-05-10T11:39:06;14.60;99.90
1383;DHT22;685;47.196;11.880;2023-05-10T11:41:33;14.60;99.90
1383;DHT22;685;47.196;11.880;2023-05-10T11:44:01;14.60;99.90
1383;DHT22;685;47.196;11.880;2023-05-10T11:46:29;14.20;99.90
1383;DHT22;685;47.196;11.880;2023-05-10T11:48:58;14.00;99.90
1383;DHT22;685;47.196;11.880;2023-05-10T11:51:27;13.80;99.90
1383;DHT22;685;47.196;11.880;2023-05-10T11:53:55;13.70;99.90
1383;DHT22;685;47.196;11.880;2023-05-10T11:56:24;13.80;99.90
1383;DHT22;685;47.196;11.880;2023-05-10T11:58:53;13.90;99.90
1383;DHT22;685;47.196;11.880;2023-05-10T12:01:21;13.90;99.90
1383;DHT22;685;47.196;11.880;2023-05-10T12:03:49;13.90;99.90
1383;DHT22;685;47.196;11.880;2023-05-10T12:06:18;14.00;99.90
1383;DHT22;685;47.196;11.880;2023-05-10T12:08:46;14.10;99.90
1383;DHT22;685;47.196;11.880;2023-05-10T12:11:13;14.10;99.90
1383;DHT22;685;47.196;11.880;2023-05-10T12:13:43;14.20;99.90
1383;DHT22;685;47.196;11.880;2023-05-10T12:16:16;14.00;99.90
1383;DHT22;685;47.196;11.880;2023-05-10T12:18:43;13.80;99.90
1383;DHT22;685;47.196;11.880;2023-05-10T12:21:11;13.60;99.90
1383;DHT22;685;47.196;11.880;2023-05-10T12:23:38;13.70;99.90
1383;DHT22;685;47.196;11.880;2023-05-10T12:26:05;13.80;99.90
1383;DHT22;685;47.196;11.880;2023-05-10T12:28:33;13.80;99.90
1383;DHT22;685;47.196;11.880;2023-05-10T12:31:02;14.00;99.90
1383;DHT22;685;47.196;11.880;2023-05-10T12:33:35;14.20;99.90
1383;DHT22;685;47.196;11.880;2023-05-10T12:36:04;14.30;99.90
1383;DHT22;685;47.196;11.880;2023-05-10T12:38:33;14.40;99.90
1383;DHT22;685;47.196;11.880;2023-05-10T12:41:01;14.40;99.90
1383;DHT22;685;47.196;11.880;2023-05-10T12:43:29;14.50;99.90
1383;DHT22;685;47.196;11.880;2023-05-10T12:45:56;14.40;99.90
1383;DHT22;685;47.196;11.880;2023-05-10T12:48:25;14.50;99.90
1383;DHT22;685;47.196;11.880;2023-05-10T12:50:54;14.50;99.90
1383;DHT22;685;47.196;11.880;2023-05-10T12:53:21;14.50;99.90
1383;DHT22;685;47.196;11.880;2023-05-10T12:55:48;14.60;99.90
1383;DHT22;685;47.196;11.880;2023-05-10T12:58:14;14.60;99.90
1383;DHT22;685;47.196;11.880;2023-05-10T13:00:41;14.30;99.90
1383;DHT22;685;47.196;11.880;2023-05-10T13:03:09;14.30;99.90
1383;DHT22;685;47.196;11.880;2023-05-10T13:05:38;14.30;99.90
1383;DHT22;685;47.196;11.880;2023-05-10T13:08:05;14.30;99.90
1383;DHT22;685;47.196;11.880;2023-05-10T13:10:32;14.20;99.90
1383;DHT22;685;47.196;11.880;2023-05-10T13:12:59;14.30;99.90
1383;DHT22;685;47.196;11.880;2023-05-10T13:15:26;14.30;99.90
1383;DHT22;685;47.196;11.880;2023-05-10T13:17:54;14.10;99.90
1383;DHT22;685;47.196;11.880;2023-05-10T13:20:20;14.20;99.90
1383;DHT22;685;47.196;11.880;2023-05-10T13:22:49;14.30;99.90
1383;DHT22;685;47.196;11.880;2023-05-10T13:25:16;14.20;99.90
1383;DHT22;685;47.196;11.880;2023-05-10T13:27:43;14.30;99.90
1383;DHT22;685;47.196;11.880;2023-05-10T13:30:10;14.30;99.90
1383;DHT22;685;47.196;11.880;2023-05-10T13:32:38;14.20;99.90
1383;DHT22;685;47.196;11.880;2023-05-10T13:35:05;14.10;99.90
1383;DHT22;685;47.196;11.880;2023-05-10T13:37:32;14.10;99.90
1383;DHT22;685;47.196;11.880;2023-05-10T13:40:05;14.10;99.90
1383;DHT22;685;47.196;11.880;2023-05-10T13:42:32;14.00;99.90
1383;DHT22;685;47.196;11.880;2023-05-10T13:45:00;13.90;99.90
1383;DHT22;685;47.196;11.880;2023-05-10T13:47:27;14.00;99.90
1383;DHT22;685;47.196;11.880;2023-05-10T13:49:54;13.90;99.90
1383;DHT22;685;47.196;11.880;2023-05-10T13:52:21;14.00;99.90
1383;DHT22;685;47.196;11.880;2023-05-10T13:54:48;13.80;99.90
1383;DHT22;685;47.196;11.880;2023-05-10T13:57:18;13.90;99.90
1383;DHT22;685;47.196;11.880;2023-05-10T13:59:45;13.70;99.90
1383;DHT22;685;47.196;11.880;2023-05-10T14:02:12;13.70;99.90
1383;DHT22;685;47.196;11.880;2023-05-10T14:04:39;13.70;99.90
1383;DHT22;685;47.196;11.880;2023-05-10T14:07:06;13.90;99.90
1383;DHT22;685;47.196;11.880;2023-05-10T14:09:33;14.00;99.90
1383;DHT22;685;47.196;11.880;2023-05-10T14:12:00;14.00;99.90
1383;DHT22;685;47.196;11.880;2023-05-10T14:14:29;13.90;99.90
1383;DHT22;685;47.196;11.880;2023-05-10T14:16:56;14.00;99.90
1383;DHT22;685;47.196;11.880;2023-05-10T14:19:22;14.00;99.90
1383;DHT22;685;47.196;11.880;2023-05-10T14:21:49;14.00;99.90
1383;DHT22;685;47.196;11.880;2023-05-10T14:24:17;13.90;99.90
1383;DHT22;685;47.196;11.880;2023-05-10T14:26:44;13.90;99.90
1383;DHT22;685;47.196;11.880;2023-05-10T14:29:11;13.80;99.90
1383;DHT22;685;47.196;11.880;2023-05-10T14:31:40;13.90;99.90
1383;DHT22;685;47.196;11.880;2023-05-10T14:34:07;13.80;99.90
1383;DHT22;685;47.196;11.880;2023-05-10T14:36:33;14.00;99.90
1383;DHT22;685;47.196;11.880;2023-05-10T14:39:00;13.90;99.90
1383;DHT22;685;47.196;11.880;2023-05-10T14:41:28;13.80;99.90
1383;DHT22;685;47.196;11.880;2023-05-10T14:43:55;13.80;99.90
1383;DHT22;685;47.196;11.880;2023-05-10T14:46:22;13.90;99.90
1383;DHT22;685;47.196;11.880;2023-05-10T14:48:51;14.00;99.90
1383;DHT22;685;47.196;11.880;2023-05-10T14:51:18;14.10;99.90
1383;DHT22;685;47.196;11.880;2023-05-10T14:53:47;13.80;99.90
1383;DHT22;685;47.196;11.880;2023-05-10T14:56:14;13.80;99.90
1383;DHT22;685;47.196;11.880;2023-05-10T14:58:41;13.60;99.90
1383;DHT22;685;47.196;11.880;2023-05-10T15:01:08;13.40;99.90
1383;DHT22;685;47.196;11.880;2023-05-10T15:03:35;13.40;99.90
1383;DHT22;685;47.196;11.880;2023-05-10T15:06:03;13.60;99.90
1383;DHT22;685;47.196;11.880;2023-05-10T15:08:30;13.70;99.90
1383;DHT22;685;47.196;11.880;2023-05-10T15:10:57;13.70;99.90
1383;DHT22;685;47.196;11.880;2023-05-10T15:13:24;13.60;99.90
1383;DHT22;685;47.196;11.880;2023-05-10T15:15:51;13.60;99.90
1383;DHT22;685;47.196;11.880;2023-05-10T15:18:18;13.60;99.90
1383;DHT22;685;47.196;11.880;2023-05-10T15:20:45;13.50;99.90
1383;DHT22;685;47.196;11.880;2023-05-10T15:23:13;13.20;99.90
1383;DHT22;685;47.196;11.880;2023-05-10T15:25:40;13.20;99.90
1383;DHT22;685;47.196;11.880;2023-05-10T15:28:07;13.30;99.90
1383;DHT22;685;47.196;11.880;2023-05-10T15:30:34;13.10;99.90
1383;DHT22;685;47.196;11.880;2023-05-10T15:33:01;13.00;99.90
1383;DHT22;685;47.196;11.880;2023-05-10T15:35:28;12.90;99.90
1383;DHT22;685;47.196;11.880;2023-05-10T15:37:55;12.70;99.90
1383;DHT22;685;47.196;11.880;2023-05-10T15:40:23;12.70;99.90
1383;DHT22;685;47.196;11.880;2023-05-10T15:42:50;13.00;99.90
1383;DHT22;685;47.196;11.880;2023-05-10T15:45:17;13.30;99.90
1383;DHT22;685;47.196;11.880;2023-05-10T15:47:44;13.50;99.90
1383;DHT22;685;47.196;11.880;2023-05-10T15:50:11;13.70;99.90
1383;DHT22;685;47.196;11.880;2023-05-10T15:52:38;13.60;99.90
1383;DHT22;685;47.196;11.880;2023-05-10T15:55:06;13.70;99.90
1383;DHT22;685;47.196;11.880;2023-05-10T15:57:38;13.80;99.90
1383;DHT22;685;47.196;11.880;2023-05-10T16:00:07;13.80;99.90
1383;DHT22;685;47.196;11.880;2023-05-10T16:02:34;13.80;99.90
1383;DHT22;685;47.196;11.880;2023-05-10T16:05:02;13.80;99.90
1383;DHT22;685;47.196;11.880;2023-05-10T16:07:29;13.80;99.90
1383;DHT22;685;47.196;11.880;2023-05-10T16:09:56;13.80;99.90